sensor_id;sensor_type;location;lat;lon;timestamp;temperature;humidity
21393;DHT22;10857;52.228;21.026;2024-03-07T00:00:36;5.30;92.50
21393;DHT22;10857;52.228;21.026;2024-03-07T00:03:03;5.20;92.70
21393;DHT22;10857;52.228;21.026;2024-03-07T00:05:30;5.20;92.80
21393;DHT22;10857;52.228;21.026;2024-03-07T00:07:58;5.20;92.90
21393;DHT22;10857;52.228;21.026;2024-03-07T00:10:26;5.20;92.90
21393;DHT22;10857;52.228;21.026;2024-03-07T00:12:53;5.10;93.30
21393;DHT22;10857;52.228;21.026;2024-03-07T00:15:20;5.10;93.50
21393;DHT22;10857;52.228;21.026;2024-03-07T00:17:48;5.10;93.20
21393;DHT22;10857;52.228;21.026;2024-03-07T00:20:15;5.10;93.30
21393;DHT22;10857;52.228;21.026;2024-03-07T00:22:46;5.10;93.40
21393;DHT22;10857;52.228;21.026;2024-03-07T00:25:14;5.10;93.40
21393;DHT22;10857;52.228;21.026;2024-03-07T00:27:47;5.00;93.60
21393;DHT22;10857;52.228;21.026;2024-03-07T00:30:14;5.00;93.90
21393;DHT22;10857;52.228;21.026;2024-03-07T00:32:46;5.00;94.00
21393;DHT22;10857;52.228;21.026;2024-03-07T00:35:15;4.90;94.40
21393;DHT22;10857;52.228;21.026;2024-03-07T00:37:42;5.00;94.20
21393;DHT22;10857;52.228;21.026;2024-03-07T00:40:10;4.90;94.70
21393;DHT22;10857;52.228;21.026;2024-03-07T00:42:37;4.90;94.70
21393;DHT22;10857;52.228;21.026;2024-03-07T00:45:05;4.90;94.60
21393;DHT22;10857;52.228;21.026;2024-03-07T00:47:33;4.90;94.50
21393;DHT22;10857;52.228;21.026;2024-03-07T00:50:01;4.90;94.40
21393;DHT22;10857;52.228;21.026;2024-03-07T00:52:29;4.90;94.40
21393;DHT22;10857;52.228;21.026;2024-03-07T00:54:56;4.80;94.70
21393;DHT22;10857;52.228;21.026;2024-03-07T00:57:23;4.80;94.80
21393;DHT22;10857;52.228;21.026;2024-03-07T00:59:52;4.80;94.80
21393;DHT22;10857;52.228;21.026;2024-03-07T01:02:19;4.70;94.70
21393;DHT22;10857;52.228;21.026;2024-03-07T01:04:47;4.60;95.20
21393;DHT22;10857;52.228;21.026;2024-03-07T01:07:14;4.60;95.40
21393;DHT22;10857;52.228;21.026;2024-03-07T01:09:41;4.70;95.00
21393;DHT22;10857;52.228;21.026;2024-03-07T01:12:08;4.60;95.40
21393;DHT22;10857;52.228;21.026;2024-03-07T01:14:37;4.60;95.70
21393;DHT22;10857;52.228;21.026;2024-03-07T01:17:04;4.50;96.00
21393;DHT22;10857;52.228;21.026;2024-03-07T01:19:35;4.50;96.20
21393;DHT22;10857;52.228;21.026;2024-03-07T01:22:02;4.50;96.20
21393;DHT22;10857;52.228;21.026;2024-03-07T01:24:29;4.50;96.50
21393;DHT22;10857;52.228;21.026;2024-03-07T01:26:56;4.60;96.40
21393;DHT22;10857;52.228;21.026;2024-03-07T01:29:23;4.50;96.60
21393;DHT22;10857;52.228;21.026;2024-03-07T01:31:51;4.50;96.90
21393;DHT22;10857;52.228;21.026;2024-03-07T01:34:18;4.40;97.20
21393;DHT22;10857;52.228;21.026;2024-03-07T01:36:45;4.40;97.40
21393;DHT22;10857;52.228;21.026;2024-03-07T01:39:12;4.40;97.50
21393;DHT22;10857;52.228;21.026;2024-03-07T01:41:39;4.40;97.50
21393;DHT22;10857;52.228;21.026;2024-03-07T01:44:07;4.30;97.90
21393;DHT22;10857;52.228;21.026;2024-03-07T01:46:34;4.30;98.10
21393;DHT22;10857;52.228;21.026;2024-03-07T01:49:01;4.30;98.20
21393;DHT22;10857;52.228;21.026;2024-03-07T01:51:29;4.20;98.50
21393;DHT22;10857;52.228;21.026;2024-03-07T01:53:56;4.20;98.70
21393;DHT22;10857;52.228;21.026;2024-03-07T01:56:24;4.20;98.70
21393;DHT22;10857;52.228;21.026;2024-03-07T01:58:52;4.10;99.00
21393;DHT22;10857;52.228;21.026;2024-03-07T02:01:20;4.10;99.40
21393;DHT22;10857;52.228;21.026;2024-03-07T02:03:47;4.10;99.80
21393;DHT22;10857;52.228;21.026;2024-03-07T02:06:14;4.00;99.90
21393;DHT22;10857;52.228;21.026;2024-03-07T02:08:41;4.00;99.90
21393;DHT22;10857;52.228;21.026;2024-03-07T02:11:09;4.00;99.90
21393;DHT22;10857;52.228;21.026;2024-03-07T02:13:37;4.00;42.10
21393;DHT22;10857;52.228;21.026;2024-03-07T02:16:04;3.90;43.50
21393;DHT22;10857;52.228;21.026;2024-03-07T02:18:32;3.90;45.80
21393;DHT22;10857;52.228;21.026;2024-03-07T02:20:59;3.80;45.50
21393;DHT22;10857;52.228;21.026;2024-03-07T02:23:27;3.80;48.50
21393;DHT22;10857;52.228;21.026;2024-03-07T02:25:54;3.70;48.80
21393;DHT22;10857;52.228;21.026;2024-03-07T02:28:21;3.70;51.30
21393;DHT22;10857;52.228;21.026;2024-03-07T02:30:48;3.60;52.00
21393;DHT22;10857;52.228;21.026;2024-03-07T02:33:15;3.60;53.70
21393;DHT22;10857;52.228;21.026;2024-03-07T02:35:43;3.60;54.20
21393;DHT22;10857;52.228;21.026;2024-03-07T02:38:10;3.50;56.70
21393;DHT22;10857;52.228;21.026;2024-03-07T02:40:37;3.50;56.00
21393;DHT22;10857;52.228;21.026;2024-03-07T02:43:04;3.60;56.10
21393;DHT22;10857;52.228;21.026;2024-03-07T02:45:32;3.60;56.20
21393;DHT22;10857;52.228;21.026;2024-03-07T02:47:59;3.50;56.40
21393;DHT22;10857;52.228;21.026;2024-03-07T02:50:26;3.40;56.80
21393;DHT22;10857;52.228;21.026;2024-03-07T02:52:54;3.40;59.80
21393;DHT22;10857;52.228;21.026;2024-03-07T02:55:21;3.40;99.90
21393;DHT22;10857;52.228;21.026;2024-03-07T02:57:48;3.30;99.90
21393;DHT22;10857;52.228;21.026;2024-03-07T03:00:15;3.30;99.90
21393;DHT22;10857;52.228;21.026;2024-03-07T03:02:54;3.20;99.90
21393;DHT22;10857;52.228;21.026;2024-03-07T03:05:22;3.20;99.90
21393;DHT22;10857;52.228;21.026;2024-03-07T03:07:50;3.10;99.90
21393;DHT22;10857;52.228;21.026;2024-03-07T03:10:26;3.10;99.90
21393;DHT22;10857;52.228;21.026;2024-03-07T03:12:57;3.00;31.40
21393;DHT22;10857;52.228;21.026;2024-03-07T03:15:28;3.10;34.80
21393;DHT22;10857;52.228;21.026;2024-03-07T03:17:57;3.00;33.90
21393;DHT22;10857;52.228;21.026;2024-03-07T03:20:28;3.00;35.10
21393;DHT22;10857;52.228;21.026;2024-03-07T03:23:06;2.90;40.10
21393;DHT22;10857;52.228;21.026;2024-03-07T03:25:46;2.80;43.80
21393;DHT22;10857;52.228;21.026;2024-03-07T03:28:16;2.80;48.40
21393;DHT22;10857;52.228;21.026;2024-03-07T03:30:47;2.80;52.30
21393;DHT22;10857;52.228;21.026;2024-03-07T03:33:15;2.70;52.00
21393;DHT22;10857;52.228;21.026;2024-03-07T03:35:42;2.70;57.00
21393;DHT22;10857;52.228;21.026;2024-03-07T03:38:09;2.60;56.70
21393;DHT22;10857;52.228;21.026;2024-03-07T03:40:37;2.60;98.50
21393;DHT22;10857;52.228;21.026;2024-03-07T03:43:04;2.60;99.90
21393;DHT22;10857;52.228;21.026;2024-03-07T03:45:31;2.60;99.90
21393;DHT22;10857;52.228;21.026;2024-03-07T03:48:01;2.60;99.90
21393;DHT22;10857;52.228;21.026;2024-03-07T03:50:29;2.60;99.90
21393;DHT22;10857;52.228;21.026;2024-03-07T03:52:56;2.50;99.90
21393;DHT22;10857;52.228;21.026;2024-03-07T03:55:24;2.50;99.90
21393;DHT22;10857;52.228;21.026;2024-03-07T03:57:51;2.40;30.20
21393;DHT22;10857;52.228;21.026;2024-03-07T04:00:20;2.40;30.30
21393;DHT22;10857;52.228;21.026;2024-03-07T04:02:50;2.30;34.80
21393;DHT22;10857;52.228;21.026;2024-03-07T04:05:20;2.30;41.30
21393;DHT22;10857;52.228;21.026;2024-03-07T04:07:48;2.30;43.80
21393;DHT22;10857;52.228;21.026;2024-03-07T04:10:16;2.20;42.70
21393;DHT22;10857;52.228;21.026;2024-03-07T04:12:44;2.10;50.40
21393;DHT22;10857;52.228;21.026;2024-03-07T04:15:13;2.20;46.10
21393;DHT22;10857;52.228;21.026;2024-03-07T04:17:44;2.10;48.20
21393;DHT22;10857;52.228;21.026;2024-03-07T04:20:15;2.10;49.90
21393;DHT22;10857;52.228;21.026;2024-03-07T04:22:46;2.00;48.20
21393;DHT22;10857;52.228;21.026;2024-03-07T04:25:13;2.00;99.90
21393;DHT22;10857;52.228;21.026;2024-03-07T04:27:42;1.90;99.90
21393;DHT22;10857;52.228;21.026;2024-03-07T04:30:09;1.90;99.90
21393;DHT22;10857;52.228;21.026;2024-03-07T04:32:38;2.00;99.90
21393;DHT22;10857;52.228;21.026;2024-03-07T04:35:06;2.00;99.90
21393;DHT22;10857;52.228;21.026;2024-03-07T04:37:40;2.00;32.90
21393;DHT22;10857;52.228;21.026;2024-03-07T04:40:09;2.00;29.80
21393;DHT22;10857;52.228;21.026;2024-03-07T04:42:45;1.90;29.90
21393;DHT22;10857;52.228;21.026;2024-03-07T04:45:13;1.90;34.20
21393;DHT22;10857;52.228;21.026;2024-03-07T04:47:41;1.90;31.20
21393;DHT22;10857;52.228;21.026;2024-03-07T04:50:09;1.90;35.30
21393;DHT22;10857;52.228;21.026;2024-03-07T04:52:40;1.80;32.50
21393;DHT22;10857;52.228;21.026;2024-03-07T04:55:08;1.80;37.80
21393;DHT22;10857;52.228;21.026;2024-03-07T04:57:37;1.80;41.80
21393;DHT22;10857;52.228;21.026;2024-03-07T05:00:10;1.80;46.50
21393;DHT22;10857;52.228;21.026;2024-03-07T05:02:45;1.70;53.10
21393;DHT22;10857;52.228;21.026;2024-03-07T05:05:13;1.70;52.60
21393;DHT22;10857;52.228;21.026;2024-03-07T05:07:41;1.80;54.30
21393;DHT22;10857;52.228;21.026;2024-03-07T05:10:09;1.80;55.10
21393;DHT22;10857;52.228;21.026;2024-03-07T05:12:36;1.80;99.90
21393;DHT22;10857;52.228;21.026;2024-03-07T05:15:05;1.80;59.80
21393;DHT22;10857;52.228;21.026;2024-03-07T05:17:33;1.80;54.00
21393;DHT22;10857;52.228;21.026;2024-03-07T05:20:03;1.70;49.80
21393;DHT22;10857;52.228;21.026;2024-03-07T05:22:37;1.80;55.10
21393;DHT22;10857;52.228;21.026;2024-03-07T05:25:07;1.80;54.40
21393;DHT22;10857;52.228;21.026;2024-03-07T05:27:36;1.80;52.20
21393;DHT22;10857;52.228;21.026;2024-03-07T05:30:03;1.80;59.70
21393;DHT22;10857;52.228;21.026;2024-03-07T05:32:37;1.80;59.50
21393;DHT22;10857;52.228;21.026;2024-03-07T05:35:05;1.80;52.80
21393;DHT22;10857;52.228;21.026;2024-03-07T05:37:33;1.90;53.10
21393;DHT22;10857;52.228;21.026;2024-03-07T05:40:00;1.90;54.40
21393;DHT22;10857;52.228;21.026;2024-03-07T05:42:29;2.00;56.20
21393;DHT22;10857;52.228;21.026;2024-03-07T05:44:59;2.00;51.00
21393;DHT22;10857;52.228;21.026;2024-03-07T05:47:26;1.90;50.30
21393;DHT22;10857;52.228;21.026;2024-03-07T05:49:54;1.90;45.10
21393;DHT22;10857;52.228;21.026;2024-03-07T05:52:21;1.90;47.10
21393;DHT22;10857;52.228;21.026;2024-03-07T05:54:48;1.80;48.30
21393;DHT22;10857;52.228;21.026;2024-03-07T05:57:15;1.80;51.50
21393;DHT22;10857;52.228;21.026;2024-03-07T05:59:42;1.80;54.90
21393;DHT22;10857;52.228;21.026;2024-03-07T06:02:09;1.80;58.70
21393;DHT22;10857;52.228;21.026;2024-03-07T06:04:39;1.80;55.10
21393;DHT22;10857;52.228;21.026;2024-03-07T06:07:06;1.80;43.50
21393;DHT22;10857;52.228;21.026;2024-03-07T06:09:33;1.80;54.50
21393;DHT22;10857;52.228;21.026;2024-03-07T06:12:00;1.90;50.50
21393;DHT22;10857;52.228;21.026;2024-03-07T06:14:39;1.90;44.80
21393;DHT22;10857;52.228;21.026;2024-03-07T06:17:06;1.90;38.40
21393;DHT22;10857;52.228;21.026;2024-03-07T06:19:33;1.90;41.30
21393;DHT22;10857;52.228;21.026;2024-03-07T06:22:00;2.00;36.00
21393;DHT22;10857;52.228;21.026;2024-03-07T06:24:27;2.00;34.40
21393;DHT22;10857;52.228;21.026;2024-03-07T06:26:57;2.00;99.90
21393;DHT22;10857;52.228;21.026;2024-03-07T06:29:30;2.00;99.90
21393;DHT22;10857;52.228;21.026;2024-03-07T06:31:58;2.10;99.90
21393;DHT22;10857;52.228;21.026;2024-03-07T06:34:25;2.30;99.90
21393;DHT22;10857;52.228;21.026;2024-03-07T06:36:54;2.30;47.90
21393;DHT22;10857;52.228;21.026;2024-03-07T06:39:22;2.30;41.80
21393;DHT22;10857;52.228;21.026;2024-03-07T06:41:49;2.30;44.30
21393;DHT22;10857;52.228;21.026;2024-03-07T06:44:16;2.40;39.30
21393;DHT22;10857;52.228;21.026;2024-03-07T06:46:46;2.30;33.10
21393;DHT22;10857;52.228;21.026;2024-03-07T06:49:13;2.40;33.30
21393;DHT22;10857;52.228;21.026;2024-03-07T06:51:40;2.30;30.90
21393;DHT22;10857;52.228;21.026;2024-03-07T06:54:07;2.30;99.90
21393;DHT22;10857;52.228;21.026;2024-03-07T06:56:34;2.30;31.70
21393;DHT22;10857;52.228;21.026;2024-03-07T06:59:01;2.40;31.20
21393;DHT22;10857;52.228;21.026;2024-03-07T07:01:32;2.50;99.90
21393;DHT22;10857;52.228;21.026;2024-03-07T07:04:00;2.60;99.90
21393;DHT22;10857;52.228;21.026;2024-03-07T07:06:30;2.60;57.20
21393;DHT22;10857;52.228;21.026;2024-03-07T07:08:58;2.60;54.20
21393;DHT22;10857;52.228;21.026;2024-03-07T07:11:26;2.70;52.70
21393;DHT22;10857;52.228;21.026;2024-03-07T07:14:01;2.70;44.90
21393;DHT22;10857;52.228;21.026;2024-03-07T07:16:29;2.80;43.60
21393;DHT22;10857;52.228;21.026;2024-03-07T07:18:58;2.80;36.30
21393;DHT22;10857;52.228;21.026;2024-03-07T07:21:25;2.90;39.40
21393;DHT22;10857;52.228;21.026;2024-03-07T07:23:52;3.10;37.60
21393;DHT22;10857;52.228;21.026;2024-03-07T07:26:19;3.20;99.90
21393;DHT22;10857;52.228;21.026;2024-03-07T07:28:46;3.20;99.90
21393;DHT22;10857;52.228;21.026;2024-03-07T07:31:14;3.30;99.90
21393;DHT22;10857;52.228;21.026;2024-03-07T07:33:56;3.40;55.90
21393;DHT22;10857;52.228;21.026;2024-03-07T07:36:23;3.50;47.00
21393;DHT22;10857;52.228;21.026;2024-03-07T07:38:53;3.40;41.40
21393;DHT22;10857;52.228;21.026;2024-03-07T07:41:20;3.30;41.40
21393;DHT22;10857;52.228;21.026;2024-03-07T07:43:47;3.40;38.90
21393;DHT22;10857;52.228;21.026;2024-03-07T07:46:14;3.40;35.80
21393;DHT22;10857;52.228;21.026;2024-03-07T07:48:43;3.30;34.00
21393;DHT22;10857;52.228;21.026;2024-03-07T07:51:10;3.50;35.90
21393;DHT22;10857;52.228;21.026;2024-03-07T07:53:38;3.60;34.60
21393;DHT22;10857;52.228;21.026;2024-03-07T07:56:06;3.70;31.40
21393;DHT22;10857;52.228;21.026;2024-03-07T07:58:34;3.70;99.90
21393;DHT22;10857;52.228;21.026;2024-03-07T08:01:01;3.80;99.90
21393;DHT22;10857;52.228;21.026;2024-03-07T08:03:29;3.70;99.90
21393;DHT22;10857;52.228;21.026;2024-03-07T08:05:57;3.80;99.90
21393;DHT22;10857;52.228;21.026;2024-03-07T08:08:24;3.90;73.80
21393;DHT22;10857;52.228;21.026;2024-03-07T08:10:51;3.90;57.30
21393;DHT22;10857;52.228;21.026;2024-03-07T08:13:18;3.90;56.60
21393;DHT22;10857;52.228;21.026;2024-03-07T08:15:45;3.80;56.50
21393;DHT22;10857;52.228;21.026;2024-03-07T08:18:13;3.90;58.20
21393;DHT22;10857;52.228;21.026;2024-03-07T08:20:41;4.10;58.30
21393;DHT22;10857;52.228;21.026;2024-03-07T08:23:10;4.30;55.80
21393;DHT22;10857;52.228;21.026;2024-03-07T08:25:38;4.40;52.20
21393;DHT22;10857;52.228;21.026;2024-03-07T08:28:08;4.30;50.40
21393;DHT22;10857;52.228;21.026;2024-03-07T08:30:35;4.40;48.70
21393;DHT22;10857;52.228;21.026;2024-03-07T08:33:02;4.50;48.00
21393;DHT22;10857;52.228;21.026;2024-03-07T08:35:33;4.60;46.60
21393;DHT22;10857;52.228;21.026;2024-03-07T08:38:01;4.60;45.30
21393;DHT22;10857;52.228;21.026;2024-03-07T08:40:29;4.60;44.10
21393;DHT22;10857;52.228;21.026;2024-03-07T08:43:02;4.70;43.50
21393;DHT22;10857;52.228;21.026;2024-03-07T08:45:30;4.60;42.70
21393;DHT22;10857;52.228;21.026;2024-03-07T08:48:02;4.70;42.90
21393;DHT22;10857;52.228;21.026;2024-03-07T08:50:32;4.80;43.00
21393;DHT22;10857;52.228;21.026;2024-03-07T08:53:01;4.90;42.50
21393;DHT22;10857;52.228;21.026;2024-03-07T08:55:29;4.70;41.30
21393;DHT22;10857;52.228;21.026;2024-03-07T08:57:56;4.80;40.70
21393;DHT22;10857;52.228;21.026;2024-03-07T09:00:23;4.90;40.70
21393;DHT22;10857;52.228;21.026;2024-03-07T09:02:59;4.90;39.80
21393;DHT22;10857;52.228;21.026;2024-03-07T09:05:30;4.90;39.40
21393;DHT22;10857;52.228;21.026;2024-03-07T09:08:01;4.90;38.70
21393;DHT22;10857;52.228;21.026;2024-03-07T09:10:30;5.10;39.40
21393;DHT22;10857;52.228;21.026;2024-03-07T09:12:58;5.10;36.90
21393;DHT22;10857;52.228;21.026;2024-03-07T09:15:25;5.30;36.60
21393;DHT22;10857;52.228;21.026;2024-03-07T09:17:55;5.20;35.10
21393;DHT22;10857;52.228;21.026;2024-03-07T09:20:22;5.20;34.80
21393;DHT22;10857;52.228;21.026;2024-03-07T09:22:51;5.10;34.00
21393;DHT22;10857;52.228;21.026;2024-03-07T09:25:22;5.10;33.70
21393;DHT22;10857;52.228;21.026;2024-03-07T09:27:53;5.10;33.50
21393;DHT22;10857;52.228;21.026;2024-03-07T09:30:24;5.20;33.10
21393;DHT22;10857;52.228;21.026;2024-03-07T09:32:56;5.20;33.10
21393;DHT22;10857;52.228;21.026;2024-03-07T09:35:24;5.40;33.20
21393;DHT22;10857;52.228;21.026;2024-03-07T09:37:51;5.40;32.70
21393;DHT22;10857;52.228;21.026;2024-03-07T09:40:18;5.70;32.30
21393;DHT22;10857;52.228;21.026;2024-03-07T09:42:52;5.70;32.00
21393;DHT22;10857;52.228;21.026;2024-03-07T09:45:21;5.80;31.60
21393;DHT22;10857;52.228;21.026;2024-03-07T09:47:50;5.70;31.10
21393;DHT22;10857;52.228;21.026;2024-03-07T09:50:21;5.70;31.10
21393;DHT22;10857;52.228;21.026;2024-03-07T09:52:52;5.80;30.90
21393;DHT22;10857;52.228;21.026;2024-03-07T09:55:20;6.00;31.00
21393;DHT22;10857;52.228;21.026;2024-03-07T09:57:49;6.20;30.80
21393;DHT22;10857;52.228;21.026;2024-03-07T10:00:18;6.30;30.60
21393;DHT22;10857;52.228;21.026;2024-03-07T10:02:58;6.50;30.30
21393;DHT22;10857;52.228;21.026;2024-03-07T10:05:27;6.70;30.00
21393;DHT22;10857;52.228;21.026;2024-03-07T10:07:55;6.70;30.00
21393;DHT22;10857;52.228;21.026;2024-03-07T10:10:23;6.60;29.60
21393;DHT22;10857;52.228;21.026;2024-03-07T10:12:51;6.50;29.80
21393;DHT22;10857;52.228;21.026;2024-03-07T10:15:20;6.70;30.10
21393;DHT22;10857;52.228;21.026;2024-03-07T10:17:48;6.70;30.00
21393;DHT22;10857;52.228;21.026;2024-03-07T10:20:18;6.70;29.70
21393;DHT22;10857;52.228;21.026;2024-03-07T10:22:51;6.70;29.50
21393;DHT22;10857;52.228;21.026;2024-03-07T10:25:22;6.70;29.70
21393;DHT22;10857;52.228;21.026;2024-03-07T10:27:52;6.70;29.50
21393;DHT22;10857;52.228;21.026;2024-03-07T10:30:19;6.70;29.50
21393;DHT22;10857;52.228;21.026;2024-03-07T10:32:58;6.90;29.40
21393;DHT22;10857;52.228;21.026;2024-03-07T10:35:28;6.90;29.10
21393;DHT22;10857;52.228;21.026;2024-03-07T10:37:57;7.00;29.10
21393;DHT22;10857;52.228;21.026;2024-03-07T10:40:29;7.20;29.20
21393;DHT22;10857;52.228;21.026;2024-03-07T10:42:58;7.20;29.00
21393;DHT22;10857;52.228;21.026;2024-03-07T10:45:30;7.40;99.90
21393;DHT22;10857;52.228;21.026;2024-03-07T10:48:03;7.20;99.90
21393;DHT22;10857;52.228;21.026;2024-03-07T10:54:20;7.10;99.90
21393;DHT22;10857;52.228;21.026;2024-03-07T10:57:20;7.00;99.90
21393;DHT22;10857;52.228;21.026;2024-03-07T10:59:50;7.10;99.90
21393;DHT22;10857;52.228;21.026;2024-03-07T11:02:33;7.10;99.90
21393;DHT22;10857;52.228;21.026;2024-03-07T11:05:01;7.10;99.90
21393;DHT22;10857;52.228;21.026;2024-03-07T11:07:29;7.00;99.90
21393;DHT22;10857;52.228;21.026;2024-03-07T11:09:57;7.10;99.90
21393;DHT22;10857;52.228;21.026;2024-03-07T11:12:26;7.30;99.90
21393;DHT22;10857;52.228;21.026;2024-03-07T11:14:56;7.30;99.90
21393;DHT22;10857;52.228;21.026;2024-03-07T11:17:24;7.30;99.90
21393;DHT22;10857;52.228;21.026;2024-03-07T11:19:52;7.30;99.90
21393;DHT22;10857;52.228;21.026;2024-03-07T11:22:29;7.30;99.90
21393;DHT22;10857;52.228;21.026;2024-03-07T11:25:05;7.30;99.90
21393;DHT22;10857;52.228;21.026;2024-03-07T11:27:38;7.40;99.90
21393;DHT22;10857;52.228;21.026;2024-03-07T11:30:06;7.50;99.90
21393;DHT22;10857;52.228;21.026;2024-03-07T11:32:36;7.60;99.90
21393;DHT22;10857;52.228;21.026;2024-03-07T11:35:13;7.80;99.90
21393;DHT22;10857;52.228;21.026;2024-03-07T11:37:49;7.80;99.90
21393;DHT22;10857;52.228;21.026;2024-03-07T11:42:53;7.70;99.90
21393;DHT22;10857;52.228;21.026;2024-03-07T11:45:20;7.70;99.90
21393;DHT22;10857;52.228;21.026;2024-03-07T11:47:56;7.60;99.90
21393;DHT22;10857;52.228;21.026;2024-03-07T11:50:40;7.40;99.90
21393;DHT22;10857;52.228;21.026;2024-03-07T11:53:08;7.50;99.90
21393;DHT22;10857;52.228;21.026;2024-03-07T11:55:39;7.60;99.90
21393;DHT22;10857;52.228;21.026;2024-03-07T11:58:17;7.70;99.90
21393;DHT22;10857;52.228;21.026;2024-03-07T12:00:45;7.90;99.90
21393;DHT22;10857;52.228;21.026;2024-03-07T12:03:17;7.80;99.90
21393;DHT22;10857;52.228;21.026;2024-03-07T12:05:45;7.90;99.90
21393;DHT22;10857;52.228;21.026;2024-03-07T12:08:13;7.70;99.90
21393;DHT22;10857;52.228;21.026;2024-03-07T12:10:42;7.80;99.90
21393;DHT22;10857;52.228;21.026;2024-03-07T12:13:15;7.80;99.90
21393;DHT22;10857;52.228;21.026;2024-03-07T12:15:43;8.00;99.90
21393;DHT22;10857;52.228;21.026;2024-03-07T12:18:10;7.90;99.90
21393;DHT22;10857;52.228;21.026;2024-03-07T12:20:42;8.00;99.90
21393;DHT22;10857;52.228;21.026;2024-03-07T12:23:14;7.90;99.90
21393;DHT22;10857;52.228;21.026;2024-03-07T12:25:46;8.00;99.90
21393;DHT22;10857;52.228;21.026;2024-03-07T12:28:14;7.90;99.90
21393;DHT22;10857;52.228;21.026;2024-03-07T12:30:49;7.80;99.90
21393;DHT22;10857;52.228;21.026;2024-03-07T12:33:18;7.80;99.90
21393;DHT22;10857;52.228;21.026;2024-03-07T12:35:47;7.80;99.90
21393;DHT22;10857;52.228;21.026;2024-03-07T12:38:17;7.80;99.90
21393;DHT22;10857;52.228;21.026;2024-03-07T12:40:45;7.80;99.90
21393;DHT22;10857;52.228;21.026;2024-03-07T12:43:20;7.80;99.90
21393;DHT22;10857;52.228;21.026;2024-03-07T12:45:48;7.90;99.90
21393;DHT22;10857;52.228;21.026;2024-03-07T12:48:19;7.90;99.90
21393;DHT22;10857;52.228;21.026;2024-03-07T12:50:49;7.90;99.90
21393;DHT22;10857;52.228;21.026;2024-03-07T12:53:23;8.00;99.90
21393;DHT22;10857;52.228;21.026;2024-03-07T12:55:52;8.00;99.90
21393;DHT22;10857;52.228;21.026;2024-03-07T12:58:20;8.20;99.90
21393;DHT22;10857;52.228;21.026;2024-03-07T13:00:49;8.00;99.90
21393;DHT22;10857;52.228;21.026;2024-03-07T13:03:16;7.80;99.90
21393;DHT22;10857;52.228;21.026;2024-03-07T13:05:43;7.80;99.90
21393;DHT22;10857;52.228;21.026;2024-03-07T13:08:10;7.80;99.90
21393;DHT22;10857;52.228;21.026;2024-03-07T13:10:43;8.00;99.90
21393;DHT22;10857;52.228;21.026;2024-03-07T13:13:13;8.00;99.90
21393;DHT22;10857;52.228;21.026;2024-03-07T13:15:40;8.10;99.90
21393;DHT22;10857;52.228;21.026;2024-03-07T13:18:09;8.20;99.90
21393;DHT22;10857;52.228;21.026;2024-03-07T13:20:36;8.30;99.90
21393;DHT22;10857;52.228;21.026;2024-03-07T13:23:03;8.50;99.90
21393;DHT22;10857;52.228;21.026;2024-03-07T13:25:32;8.30;99.90
21393;DHT22;10857;52.228;21.026;2024-03-07T13:28:09;8.40;99.90
21393;DHT22;10857;52.228;21.026;2024-03-07T13:30:51;8.30;99.90
21393;DHT22;10857;52.228;21.026;2024-03-07T13:33:22;8.30;99.90
21393;DHT22;10857;52.228;21.026;2024-03-07T13:35:53;8.20;99.90
21393;DHT22;10857;52.228;21.026;2024-03-07T13:38:20;8.30;99.90
21393;DHT22;10857;52.228;21.026;2024-03-07T13:40:47;8.10;99.90
21393;DHT22;10857;52.228;21.026;2024-03-07T13:43:17;8.00;99.90
21393;DHT22;10857;52.228;21.026;2024-03-07T13:45:45;7.90;99.90
21393;DHT22;10857;52.228;21.026;2024-03-07T13:48:15;8.00;99.90
21393;DHT22;10857;52.228;21.026;2024-03-07T13:50:46;8.20;99.90
21393;DHT22;10857;52.228;21.026;2024-03-07T13:53:26;8.20;99.90
21393;DHT22;10857;52.228;21.026;2024-03-07T13:56:23;8.20;99.90
21393;DHT22;10857;52.228;21.026;2024-03-07T14:07:28;8.40;99.90
21393;DHT22;10857;52.228;21.026;2024-03-07T14:13:09;8.30;99.90
21393;DHT22;10857;52.228;21.026;2024-03-07T14:27:34;8.10;99.90
21393;DHT22;10857;52.228;21.026;2024-03-07T14:30:38;8.10;99.90
21393;DHT22;10857;52.228;21.026;2024-03-07T14:33:14;8.00;99.90
21393;DHT22;10857;52.228;21.026;2024-03-07T14:36:00;8.10;99.90
21393;DHT22;10857;52.228;21.026;2024-03-07T14:38:51;8.00;99.90
21393;DHT22;10857;52.228;21.026;2024-03-07T14:41:39;8.00;99.90
21393;DHT22;10857;52.228;21.026;2024-03-07T14:44:08;8.00;99.90
21393;DHT22;10857;52.228;21.026;2024-03-07T14:46:35;8.00;99.90
21393;DHT22;10857;52.228;21.026;2024-03-07T14:49:02;8.00;99.90
21393;DHT22;10857;52.228;21.026;2024-03-07T14:51:31;8.00;99.90
21393;DHT22;10857;52.228;21.026;2024-03-07T14:54:10;7.80;99.90
21393;DHT22;10857;52.228;21.026;2024-03-07T14:56:38;7.90;99.90
21393;DHT22;10857;52.228;21.026;2024-03-07T14:59:05;7.90;99.90
21393;DHT22;10857;52.228;21.026;2024-03-07T15:01:33;7.90;99.90
21393;DHT22;10857;52.228;21.026;2024-03-07T15:04:04;7.80;99.90
21393;DHT22;10857;52.228;21.026;2024-03-07T15:06:34;7.80;99.90
21393;DHT22;10857;52.228;21.026;2024-03-07T15:09:01;7.70;99.90
21393;DHT22;10857;52.228;21.026;2024-03-07T15:11:35;7.70;99.90
21393;DHT22;10857;52.228;21.026;2024-03-07T15:14:03;7.70;99.90
21393;DHT22;10857;52.228;21.026;2024-03-07T15:16:36;7.50;99.90
21393;DHT22;10857;52.228;21.026;2024-03-07T15:19:07;7.60;99.90
21393;DHT22;10857;52.228;21.026;2024-03-07T15:21:36;7.60;99.90
21393;DHT22;10857;52.228;21.026;2024-03-07T15:24:05;7.60;99.90
21393;DHT22;10857;52.228;21.026;2024-03-07T15:26:33;7.60;99.90
21393;DHT22;10857;52.228;21.026;2024-03-07T15:29:02;7.50;99.90
21393;DHT22;10857;52.228;21.026;2024-03-07T15:31:29;7.40;99.90
21393;DHT22;10857;52.228;21.026;2024-03-07T15:33:56;7.40;99.90
21393;DHT22;10857;52.228;21.026;2024-03-07T15:36:25;7.30;99.90
21393;DHT22;10857;52.228;21.026;2024-03-07T15:38:55;7.40;99.90
21393;DHT22;10857;52.228;21.026;2024-03-07T15:41:24;7.50;99.90
21393;DHT22;10857;52.228;21.026;2024-03-07T15:43:52;7.50;99.90
21393;DHT22;10857;52.228;21.026;2024-03-07T15:46:20;7.50;99.90
21393;DHT22;10857;52.228;21.026;2024-03-07T15:48:49;7.40;99.90
21393;DHT22;10857;52.228;21.026;2024-03-07T15:51:17;7.30;99.90
21393;DHT22;10857;52.228;21.026;2024-03-07T15:53:45;7.20;99.90
21393;DHT22;10857;52.228;21.026;2024-03-07T15:56:13;7.20;99.90
21393;DHT22;10857;52.228;21.026;2024-03-07T15:58:41;7.20;99.90
21393;DHT22;10857;52.228;21.026;2024-03-07T16:01:08;7.20;99.90
21393;DHT22;10857;52.228;21.026;2024-03-07T16:03:35;7.20;99.90
21393;DHT22;10857;52.228;21.026;2024-03-07T16:06:06;7.20;99.90
21393;DHT22;10857;52.228;21.026;2024-03-07T16:08:34;7.20;99.90
21393;DHT22;10857;52.228;21.026;2024-03-07T16:11:02;7.20;99.90
21393;DHT22;10857;52.228;21.026;2024-03-07T16:13:30;7.10;99.90